CheckWX is a tool to help pilots better visualize weather data.  It is not intended as a substitute for an official pre-flight weather briefing.

21:40:31 UTC

KPNE TAF
Northeast Philadelphia Airport
Philadelphia, Pennsylvania, USA
KPNE 191733Z 1918/2018 04005KT P6SM SKC FM192100 VRB03KT P6SM FEW200 FM201400 28006KT P6SM FEW250

Sep-19@
18:00 UTC

Sep-19 @ 18:00 UTC

Sep-19@
21:00 UTC

Sep-19 @ 21:00 UTC

KPNE 191733Z 1918/2018 04005KT P6SM SKC

Expired

Wind
  • 040° at 5 KTS
Cloud Levels
  • Clear skies

Sep-19@
21:00 UTC

Sep-19 @ 21:00 UTC

Sep-20@
14:00 UTC

Sep-20 @ 14:00 UTC

FM192100 VRB03KT P6SM FEW200

From

From Standard forecast or significant change

Wind
  • Variable at 3 KTS
Cloud Levels
  • Few at 20,000' AGL

Sep-20@
14:00 UTC

Sep-20 @ 14:00 UTC

Sep-20@
18:00 UTC

Sep-20 @ 18:00 UTC

FM201400 28006KT P6SM FEW250

From

From Standard forecast or significant change

Wind
  • 280° at 6 KTS
Cloud Levels
  • Few at 25,000' AGL